ETHF/FRZ METAR and TAF weather

Enter ICAO airport designator
Station Type Date Time Source
ETHF METAR 2018/01/16 08:20 UTC NOAA

ETHF 160820Z 19007KT 9999 FEW010 SCT022 BKN040 04/02 Q0992 BLU BLU TEMPO GRN


Station Type Date Time Source
ETHF Decoded METAR 2018/01/16 08:20 UTC NOAA

Fritzlar, Germany (ETHF) 51-07N 009-17E 181M
Jan 16, 2018 - 03:20 AM EST / 2018.01.16 0820 UTC
Wind: from the S (190 degrees) at 8 MPH (7 KT):0
Visibility: greater than 7 mile(s):0
Sky conditions: mostly cloudy
Temperature: 39 F (4 C)
Dew Point: 35 F (2 C)
Relative Humidity: 86%
Pressure (altimeter): 29.29 in. Hg (0992 hPa)
ob: ETHF 160820Z 19007KT 9999 FEW010 SCT022 BKN040 04/02 Q0992 BLU BLU TEMPO GRN
cycle: 8

Station Type Date Time Source
ETHF TAF 2017/12/12 12:36 UTC NOAA

TAF TAF ETHF 121122Z 1212/1224 23010KT 9999 NSW SCT020 BKN025
TEMPO 1212/1218 25015G25KT 3000 -SHSN SCT010 BKN015CB


Example: see airport list